Woodland, California
Current Conditions -  °F | °C
As of 12:53 PM on Wednesday 17 Dec 2014 (Local Time) from KSMF Reporting Station
Broken Clouds Broken Clouds  
Wind Chill: 55°   Ceiling: 5500
Heat Index: 55°   Visibility: 10mi
Dew Point: 48°   Wind: 15mph
Humidity: 77%   Direction: 180°S
Pressure: 30.03"   Gusts: NA
Location:  38.68°N, 121.77°W
Report Text: KSMF 172053Z 18013KT 10SM BKN055 13/09 A3003 RMK AO2 SLP168 T01280089 58004
Loading
Personal Weather Stations






























Interactive Weather Map New forecast layout! Learn more

10-Day Weather Forecast

Advertisements
Track Severe Weather on mobile